Time;durP1;ratioP1;P1;durP2;ratioP2;P2;SDS_P1;SDS_P2;PMS_P1;PMS_P2;Temp;Humidity;BMP_temperature;BMP_pressure;BME280_temperature;BME280_humidity;BME280_pressure;Samples;Min_cycle;Max_cycle;Signal;HPM_P1;HPM_P2
2022/04/12 00:00:19;;;;;;;5.97;2.50;;;6.80;99.90;;;;;;5072991;28;20095;-62
2022/04/12 00:02:45;;;;;;;6.38;3.15;;;6.80;99.90;;;;;;5100760;28;20428;-62
2022/04/12 00:05:12;;;;;;;6.63;3.00;;;6.80;99.90;;;;;;5102758;28;20047;-63
2022/04/12 00:07:42;;;;;;;3.85;2.20;;;6.80;99.90;;;;;;5100322;28;20046;-62
2022/04/12 00:10:09;;;;;;;7.10;2.78;;;6.80;99.90;;;;;;5108812;28;20062;-62
2022/04/12 00:12:37;;;;;;;8.32;3.17;;;6.70;99.90;;;;;;5100416;28;20046;-61
2022/04/12 00:15:04;;;;;;;8.88;3.33;;;6.70;99.90;;;;;;5092975;28;20105;-62
2022/04/12 00:20:15;;;;;;;9.60;3.72;;;6.70;99.90;;;;;;5093676;28;20047;-62
2022/04/12 00:22:41;;;;;;;7.03;2.92;;;6.60;99.90;;;;;;5108664;28;20122;-63
2022/04/12 00:25:10;;;;;;;7.25;2.58;;;6.60;99.90;;;;;;5093112;28;20047;-64
2022/04/12 00:27:37;;;;;;;5.97;2.90;;;6.50;99.90;;;;;;5097040;28;20053;-62
2022/04/12 00:30:08;;;;;;;6.78;3.40;;;6.50;99.90;;;;;;5098663;28;20185;-64
2022/04/12 00:32:35;;;;;;;7.40;3.08;;;6.50;99.90;;;;;;5074209;28;20366;-64
2022/04/12 00:35:02;;;;;;;6.40;3.53;;;6.50;99.90;;;;;;5072814;28;20040;-62
2022/04/12 00:37:28;;;;;;;7.03;3.50;;;6.40;99.90;;;;;;5100183;28;20054;-63
2022/04/12 00:39:54;;;;;;;6.22;3.38;;;6.40;99.90;;;;;;5089046;28;20047;-62
2022/04/12 00:42:20;;;;;;;6.38;3.40;;;6.50;99.90;;;;;;5108058;28;20063;-62
2022/04/12 00:44:46;;;;;;;6.93;3.60;;;6.40;99.90;;;;;;5097805;28;20351;-62
2022/04/12 00:47:11;;;;;;;8.32;3.50;;;6.40;99.90;;;;;;5108112;28;20054;-63
2022/04/12 00:49:37;;;;;;;4.95;3.03;;;6.40;99.90;;;;;;5106082;28;20518;-62
2022/04/12 00:52:04;;;;;;;6.35;3.35;;;6.40;99.90;;;;;;5103482;28;20380;-62
2022/04/12 00:54:33;;;;;;;6.85;2.95;;;6.30;99.90;;;;;;5077839;28;20056;-64
2022/04/12 00:56:59;;;;;;;6.50;3.45;;;6.30;99.90;;;;;;5105911;28;20511;-63
2022/04/12 00:59:26;;;;;;;7.43;3.20;;;6.30;99.90;;;;;;5084116;28;20457;-62
2022/04/12 01:01:52;;;;;;;5.90;3.47;;;6.30;99.90;;;;;;5092963;28;20047;-63
2022/04/12 01:04:19;;;;;;;7.32;3.58;;;6.30;99.90;;;;;;5101835;28;20123;-63
2022/04/12 01:06:46;;;;;;;6.03;3.42;;;6.30;99.90;;;;;;5104530;28;20044;-62
2022/04/12 01:09:12;;;;;;;7.28;3.95;;;6.30;99.90;;;;;;5103449;28;20523;-63
2022/04/12 01:11:39;;;;;;;7.88;3.92;;;6.20;99.90;;;;;;5101110;28;20056;-63
2022/04/12 01:14:07;;;;;;;8.85;3.70;;;6.20;99.90;;;;;;5104129;28;20519;-62
2022/04/12 01:16:33;;;;;;;7.82;3.90;;;6.20;99.90;;;;;;5109530;28;20118;-63
2022/04/12 01:18:59;;;;;;;5.72;3.22;;;6.20;99.90;;;;;;5082790;28;20457;-63
2022/04/12 01:21:31;;;;;;;6.85;3.95;;;6.20;99.90;;;;;;5107744;28;20114;-63
2022/04/12 01:24:01;;;;;;;9.93;4.78;;;6.10;99.90;;;;;;5083526;28;20109;-62
2022/04/12 01:26:27;;;;;;;7.88;3.60;;;6.10;99.90;;;;;;5100522;28;20054;-62
2022/04/12 01:28:52;;;;;;;6.32;3.85;;;6.10;99.90;;;;;;5082547;28;20118;-62
2022/04/12 01:31:18;;;;;;;7.32;4.03;;;6.10;99.90;;;;;;5101418;28;20071;-62
2022/04/12 01:33:44;;;;;;;7.90;3.78;;;6.10;99.90;;;;;;5110722;28;20212;-62
2022/04/12 01:36:09;;;;;;;10.25;3.60;;;6.10;99.90;;;;;;5096915;28;20047;-62
2022/04/12 01:38:35;;;;;;;9.95;4.38;;;6.00;99.90;;;;;;5107206;28;20062;-62
2022/04/12 01:41:02;;;;;;;6.25;3.53;;;6.10;99.90;;;;;;5101731;28;20051;-62
2022/04/12 01:43:29;;;;;;;7.53;3.72;;;6.00;99.90;;;;;;5108299;28;20053;-62
2022/04/12 01:45:55;;;;;;;7.50;3.85;;;6.00;99.90;;;;;;5086354;28;20091;-66
2022/04/12 01:48:21;;;;;;;7.05;3.90;;;6.00;99.90;;;;;;5093232;28;20048;-62
2022/04/12 01:50:46;;;;;;;7.28;4.13;;;6.00;99.90;;;;;;5100530;28;20056;-62
2022/04/12 01:53:12;;;;;;;7.15;4.00;;;5.90;99.90;;;;;;5100329;28;20154;-61
2022/04/12 01:55:38;;;;;;;10.48;5.22;;;6.00;99.90;;;;;;5103365;28;20515;-62
2022/04/12 01:58:04;;;;;;;6.13;3.50;;;5.90;99.90;;;;;;5108677;28;20118;-62
2022/04/12 02:00:30;;;;;;;7.32;4.45;;;5.90;99.90;;;;;;5083146;28;20043;-63
2022/04/12 02:02:56;;;;;;;7.07;3.78;;;6.00;99.90;;;;;;5100143;28;20485;-62
2022/04/12 02:05:22;;;;;;;7.85;4.30;;;6.00;99.90;;;;;;5106695;28;20062;-64
2022/04/12 02:07:47;;;;;;;7.78;4.55;;;5.90;99.90;;;;;;5090184;28;20036;-62
2022/04/12 02:10:13;;;;;;;8.13;4.07;;;5.90;99.90;;;;;;5087261;28;20097;-62
2022/04/12 02:12:39;;;;;;;7.68;4.10;;;6.00;99.90;;;;;;5095877;28;20101;-61
2022/04/12 02:15:06;;;;;;;7.88;4.10;;;5.90;99.90;;;;;;5101725;28;20461;-63
2022/04/12 02:17:31;;;;;;;5.90;4.25;;;5.90;99.90;;;;;;5100772;28;20617;-61
2022/04/12 02:19:57;;;;;;;12.13;4.43;;;5.90;99.90;;;;;;5095015;28;20065;-62
2022/04/12 02:22:23;;;;;;;7.05;4.28;;;5.90;99.90;;;;;;5106342;28;20461;-61
2022/04/12 02:24:49;;;;;;;7.72;4.63;;;5.90;99.90;;;;;;5082809;28;20123;-64
2022/04/12 02:27:14;;;;;;;10.05;4.35;;;5.80;99.90;;;;;;5096453;28;20126;-63
2022/04/12 02:29:40;;;;;;;7.75;4.20;;;5.80;99.90;;;;;;5082620;28;20425;-64
2022/04/12 02:32:06;;;;;;;9.40;5.20;;;5.80;99.90;;;;;;5102612;28;20079;-63
2022/04/12 02:34:32;;;;;;;9.02;4.90;;;5.80;99.90;;;;;;5104547;28;20044;-62
2022/04/12 02:36:58;;;;;;;8.27;4.72;;;5.80;99.90;;;;;;5100639;28;20127;-64
2022/04/12 02:39:24;;;;;;;8.52;4.30;;;5.80;99.90;;;;;;5099675;28;20111;-62
2022/04/12 02:41:50;;;;;;;8.80;4.57;;;5.80;99.90;;;;;;5081963;28;20127;-62
2022/04/12 02:44:16;;;;;;;7.95;4.70;;;5.80;99.90;;;;;;5107460;28;20480;-64
2022/04/12 02:46:41;;;;;;;7.40;4.72;;;5.70;99.90;;;;;;5098483;28;20401;-62
2022/04/12 02:49:07;;;;;;;9.23;4.90;;;5.70;99.90;;;;;;5107621;28;20072;-63
2022/04/12 02:51:33;;;;;;;9.63;5.05;;;5.70;99.90;;;;;;5081500;28;20056;-62
2022/04/12 02:53:59;;;;;;;7.95;5.10;;;5.70;99.90;;;;;;5107185;28;20047;-64
2022/04/12 02:56:25;;;;;;;8.95;5.07;;;5.60;99.90;;;;;;5096619;28;20079;-62
2022/04/12 02:58:51;;;;;;;10.60;5.35;;;5.70;99.90;;;;;;5087544;28;20047;-62
2022/04/12 03:01:16;;;;;;;10.60;5.47;;;5.60;99.90;;;;;;5096521;28;20480;-61
2022/04/12 03:03:42;;;;;;;8.35;5.55;;;5.60;99.90;;;;;;5086633;28;20081;-63
2022/04/12 03:06:08;;;;;;;7.82;4.80;;;5.60;99.90;;;;;;5108288;28;20035;-62
2022/04/12 03:08:33;;;;;;;9.50;5.20;;;5.70;99.90;;;;;;5092619;28;20078;-63
2022/04/12 03:10:59;;;;;;;8.75;5.70;;;5.60;99.90;;;;;;5092134;28;20119;-62
2022/04/12 03:13:25;;;;;;;7.03;5.13;;;5.50;99.90;;;;;;5090748;28;20051;-62
2022/04/12 03:15:51;;;;;;;8.52;5.55;;;5.60;99.90;;;;;;5093715;28;20145;-62
2022/04/12 03:18:17;;;;;;;8.88;5.32;;;5.60;99.90;;;;;;5081806;28;20114;-63
2022/04/12 03:20:43;;;;;;;8.65;5.32;;;5.60;99.90;;;;;;5090870;28;20442;-63
2022/04/12 03:23:09;;;;;;;6.47;4.80;;;5.60;99.90;;;;;;5077163;28;20424;-62
2022/04/12 03:25:34;;;;;;;9.02;5.68;;;5.60;99.90;;;;;;5105245;28;20043;-62
2022/04/12 03:28:01;;;;;;;9.90;5.15;;;5.50;99.90;;;;;;5089275;28;20499;-61
2022/04/12 03:30:27;;;;;;;7.72;5.38;;;5.50;99.90;;;;;;5092734;28;20063;-63
2022/04/12 03:32:53;;;;;;;9.35;5.72;;;5.60;99.90;;;;;;5098814;28;20049;-62
2022/04/12 03:35:19;;;;;;;8.75;5.50;;;5.60;99.90;;;;;;5098207;28;20055;-61
2022/04/12 03:37:45;;;;;;;13.32;6.05;;;5.50;99.90;;;;;;5105987;28;20219;-64
2022/04/12 03:40:11;;;;;;;11.48;5.97;;;5.50;99.90;;;;;;5104329;28;20044;-63
2022/04/12 03:42:37;;;;;;;9.88;5.97;;;5.50;99.90;;;;;;5105883;28;20357;-61
2022/04/12 03:45:03;;;;;;;11.25;6.25;;;5.50;99.90;;;;;;5079672;28;20396;-62
2022/04/12 03:47:29;;;;;;;7.68;5.05;;;5.40;99.90;;;;;;5085096;28;20051;-62
2022/04/12 03:49:54;;;;;;;8.60;5.70;;;5.40;99.90;;;;;;5097919;28;20454;-61
2022/04/12 03:52:20;;;;;;;11.10;6.22;;;5.40;99.90;;;;;;5102094;28;20047;-62
2022/04/12 03:54:46;;;;;;;10.80;5.78;;;5.40;99.90;;;;;;5093814;28;20058;-62
2022/04/12 03:57:12;;;;;;;10.82;6.38;;;5.50;99.90;;;;;;5091468;28;20059;-62
2022/04/12 03:59:37;;;;;;;11.00;6.03;;;5.40;99.90;;;;;;5104418;28;20075;-64
2022/04/12 04:02:03;;;;;;;11.55;6.40;;;5.40;99.90;;;;;;5093463;28;20079;-63
2022/04/12 04:04:29;;;;;;;11.55;6.50;;;5.40;99.90;;;;;;5105751;28;20048;-62
2022/04/12 04:06:55;;;;;;;12.80;6.07;;;5.40;99.90;;;;;;5094531;28;20139;-62
2022/04/12 04:09:21;;;;;;;9.60;6.47;;;5.40;99.90;;;;;;5104507;28;20054;-62
2022/04/12 04:11:48;;;;;;;9.82;6.38;;;5.40;99.90;;;;;;5103072;28;20043;-62
2022/04/12 04:14:15;;;;;;;10.45;6.00;;;5.30;99.90;;;;;;5105510;28;20051;-63
2022/04/12 04:16:41;;;;;;;12.52;5.72;;;5.40;99.90;;;;;;5108802;28;20489;-62
2022/04/12 04:19:09;;;;;;;10.65;6.38;;;5.40;99.90;;;;;;5110405;28;20047;-62
2022/04/12 04:21:38;;;;;;;12.15;6.25;;;5.40;99.90;;;;;;5104383;28;20082;-63
2022/04/12 04:24:04;;;;;;;11.70;7.07;;;5.30;99.90;;;;;;5107374;28;20043;-63
2022/04/12 04:26:30;;;;;;;10.38;6.85;;;5.30;99.90;;;;;;5103880;28;20071;-62
2022/04/12 04:28:56;;;;;;;10.30;6.78;;;5.30;99.90;;;;;;5088938;28;20152;-62
2022/04/12 04:31:22;;;;;;;10.80;6.93;;;5.30;99.90;;;;;;5104573;28;20446;-64
2022/04/12 04:33:48;;;;;;;11.05;6.28;;;5.30;99.90;;;;;;5105395;28;20069;-63
2022/04/12 04:36:14;;;;;;;9.05;6.22;;;5.20;99.90;;;;;;5104836;28;20081;-63
2022/04/12 04:38:39;;;;;;;10.82;7.50;;;5.20;99.90;;;;;;5106677;28;20051;-63
2022/04/12 04:41:05;;;;;;;9.80;6.50;;;5.20;99.90;;;;;;5101752;28;20445;-63
2022/04/12 04:43:31;;;;;;;10.00;6.60;;;5.20;99.90;;;;;;5093548;28;20054;-65
2022/04/12 04:45:57;;;;;;;10.27;6.13;;;5.20;99.90;;;;;;5107058;28;20444;-62
2022/04/12 04:48:22;;;;;;;12.07;7.38;;;5.20;99.90;;;;;;5103350;28;20097;-64
2022/04/12 04:50:48;;;;;;;12.85;8.18;;;5.20;99.90;;;;;;5102907;28;21142;-62
2022/04/12 04:53:14;;;;;;;11.73;7.28;;;5.10;99.90;;;;;;5089981;28;20087;-62
2022/04/12 04:55:43;;;;;;;13.43;8.48;;;5.10;99.90;;;;;;5110975;28;20055;-63
2022/04/12 04:58:09;;;;;;;13.95;7.05;;;5.10;99.90;;;;;;5100671;28;20044;-62
2022/04/12 05:00:35;;;;;;;10.82;8.00;;;5.10;99.90;;;;;;5103203;28;20056;-62
2022/04/12 05:03:03;;;;;;;10.30;6.70;;;5.10;99.90;;;;;;5110762;28;20036;-63
2022/04/12 05:05:29;;;;;;;14.30;7.35;;;5.20;99.90;;;;;;5080723;28;20071;-63
2022/04/12 05:07:57;;;;;;;11.07;7.03;;;5.10;99.90;;;;;;5101163;28;20378;-63
2022/04/12 05:10:26;;;;;;;14.40;7.18;;;5.10;99.90;;;;;;5094772;28;20047;-69
2022/04/12 05:12:51;;;;;;;11.43;7.63;;;5.10;99.90;;;;;;5103291;28;20071;-63
2022/04/12 05:15:17;;;;;;;13.90;7.28;;;5.10;99.90;;;;;;5099991;28;20129;-62
2022/04/12 05:17:53;;;;;;;10.43;6.97;;;5.20;99.90;;;;;;5097163;28;20353;-62
2022/04/12 05:20:21;;;;;;;14.57;7.78;;;5.10;99.90;;;;;;5102402;28;20468;-62
2022/04/12 05:22:47;;;;;;;13.35;7.07;;;5.20;99.90;;;;;;5083807;28;20040;-63
2022/04/12 05:25:14;;;;;;;11.70;7.28;;;5.20;99.90;;;;;;5101695;28;20108;-63
2022/04/12 05:27:40;;;;;;;13.77;7.43;;;5.30;99.90;;;;;;5099905;28;20048;-64
2022/04/12 05:30:08;;;;;;;10.45;6.50;;;5.20;99.90;;;;;;5107036;28;20053;-63
2022/04/12 05:32:35;;;;;;;11.25;6.68;;;5.30;99.90;;;;;;5100086;28;20059;-63
2022/04/12 05:35:01;;;;;;;10.27;6.35;;;5.30;99.90;;;;;;5101343;28;20489;-63
2022/04/12 05:37:28;;;;;;;10.13;6.75;;;5.40;99.90;;;;;;5097715;28;20047;-67
2022/04/12 05:39:56;;;;;;;8.95;6.78;;;5.50;99.90;;;;;;5100767;28;20054;-63
2022/04/12 05:42:23;;;;;;;9.63;6.78;;;5.70;99.90;;;;;;5100637;28;20122;-62
2022/04/12 05:44:49;;;;;;;12.27;6.45;;;5.90;99.90;;;;;;5102348;28;20032;-63
2022/04/12 05:47:14;;;;;;;9.52;6.70;;;6.20;99.90;;;;;;5100986;28;20061;-63
2022/04/12 05:49:40;;;;;;;9.60;6.45;;;6.60;99.90;;;;;;5068719;28;20056;-66
2022/04/12 05:52:07;;;;;;;10.98;7.07;;;7.00;99.90;;;;;;5103404;28;20408;-63
2022/04/12 05:54:33;;;;;;;9.70;6.53;;;7.80;99.90;;;;;;5105186;28;20055;-62
2022/04/12 05:56:59;;;;;;;10.38;6.95;;;8.70;99.90;;;;;;5092619;28;20074;-63
2022/04/12 05:59:24;;;;;;;9.70;6.90;;;9.50;99.90;;;;;;5092260;28;20052;-62
2022/04/12 06:01:50;;;;;;;9.73;6.47;;;10.10;99.90;;;;;;5085650;28;20396;-61
2022/04/12 06:04:16;;;;;;;7.22;5.05;;;9.90;99.90;;;;;;5083294;28;20043;-65
2022/04/12 06:06:42;;;;;;;11.02;6.80;;;9.50;99.90;;;;;;5100420;28;20134;-62
2022/04/12 06:09:08;;;;;;;9.75;6.60;;;9.10;99.90;;;;;;5110953;28;20126;-64
2022/04/12 06:11:34;;;;;;;8.05;4.97;;;8.70;99.90;;;;;;5096689;28;20040;-62
2022/04/12 06:13:59;;;;;;;10.48;6.40;;;8.40;99.90;;;;;;5097921;28;20059;-62
2022/04/12 06:16:25;;;;;;;9.70;5.72;;;8.20;99.90;;;;;;5076226;28;20044;-62
2022/04/12 06:18:51;;;;;;;10.48;6.00;;;8.00;99.90;;;;;;5073850;28;20846;-63
2022/04/12 06:21:17;;;;;;;16.10;7.25;;;7.80;99.90;;;;;;5092022;28;20044;-62
2022/04/12 06:23:43;;;;;;;11.02;6.75;;;7.70;99.90;;;;;;5102690;28;20032;-61
2022/04/12 06:26:09;;;;;;;9.02;5.75;;;7.60;99.90;;;;;;5103592;28;20112;-62
2022/04/12 06:28:35;;;;;;;10.88;5.45;;;7.60;99.90;;;;;;5083142;28;20130;-63
2022/04/12 06:31:01;;;;;;;10.32;5.93;;;7.60;99.90;;;;;;5087671;28;20389;-61
2022/04/12 06:33:27;;;;;;;9.82;6.50;;;7.60;99.90;;;;;;5102402;28;20381;-63
2022/04/12 06:35:53;;;;;;;9.43;5.95;;;7.60;99.90;;;;;;5101990;28;20071;-61
2022/04/12 06:38:19;;;;;;;11.70;6.78;;;7.70;99.90;;;;;;5107089;28;20094;-61
2022/04/12 06:40:48;;;;;;;10.82;6.22;;;7.70;99.90;;;;;;5100147;28;20052;-64
2022/04/12 06:43:14;;;;;;;11.95;6.63;;;7.70;99.90;;;;;;5104179;28;20402;-63
2022/04/12 06:45:40;;;;;;;11.25;6.47;;;7.80;99.90;;;;;;5092294;28;20040;-63
2022/04/12 06:48:06;;;;;;;9.50;6.15;;;7.90;99.90;;;;;;5104100;28;20035;-63
2022/04/12 06:50:32;;;;;;;10.15;6.13;;;8.00;99.90;;;;;;5095429;28;20048;-64
2022/04/12 06:52:59;;;;;;;11.07;6.63;;;8.10;99.90;;;;;;5102516;28;20073;-63
2022/04/12 06:55:26;;;;;;;11.45;6.57;;;8.10;99.90;;;;;;5102641;28;20496;-65
2022/04/12 06:57:52;;;;;;;9.07;6.72;;;8.10;99.90;;;;;;5090347;28;20401;-63
2022/04/12 07:00:19;;;;;;;10.00;7.13;;;8.10;99.90;;;;;;5104459;28;20059;-63
2022/04/12 07:02:46;;;;;;;11.40;6.95;;;8.00;99.90;;;;;;5081566;28;20117;-63
2022/04/12 07:05:12;;;;;;;10.73;6.65;;;8.10;99.90;;;;;;5079034;28;20489;-63
2022/04/12 07:07:39;;;;;;;12.57;7.03;;;8.10;99.90;;;;;;5079480;28;20139;-69
2022/04/12 07:10:07;;;;;;;13.15;7.13;;;8.10;99.90;;;;;;5088711;28;20036;-64
2022/04/12 07:12:33;;;;;;;10.88;7.30;;;8.20;99.90;;;;;;5106743;28;20043;-64
2022/04/12 07:14:59;;;;;;;10.10;7.47;;;8.30;99.90;;;;;;5093276;28;20050;-64
2022/04/12 07:17:24;;;;;;;10.98;7.30;;;8.50;99.90;;;;;;5104641;28;20052;-63
2022/04/12 07:19:50;;;;;;;9.93;6.53;;;8.50;99.90;;;;;;5095528;28;20523;-63
2022/04/12 07:22:16;;;;;;;10.93;6.68;;;8.70;99.90;;;;;;5107352;28;20133;-63
2022/04/12 07:24:42;;;;;;;12.85;7.60;;;8.90;99.90;;;;;;5105991;28;20049;-64
2022/04/12 07:27:08;;;;;;;10.80;6.22;;;9.20;99.90;;;;;;5083390;28;20394;-65
2022/04/12 07:29:34;;;;;;;10.15;6.88;;;9.50;99.90;;;;;;5102245;28;20143;-64
2022/04/12 07:32:00;;;;;;;11.30;7.05;;;10.00;99.90;;;;;;5088874;28;20303;-67
2022/04/12 07:34:26;;;;;;;10.80;6.30;;;10.70;99.90;;;;;;5096206;28;20393;-63
2022/04/12 07:36:55;;;;;;;10.98;7.60;;;11.50;99.90;;;;;;5101316;28;20047;-63
2022/04/12 07:39:21;;;;;;;13.95;7.13;;;12.00;99.90;;;;;;5104510;28;20491;-63
2022/04/12 07:41:47;;;;;;;10.50;5.97;;;12.40;99.90;;;;;;5097916;28;20044;-64
2022/04/12 07:44:13;;;;;;;13.63;7.63;;;12.90;99.90;;;;;;5108641;28;20039;-61
2022/04/12 07:46:39;;;;;;;10.55;6.53;;;13.50;99.90;;;;;;5101430;28;20047;-62
2022/04/12 07:49:05;;;;;;;9.40;6.68;;;14.20;99.90;;;;;;5093048;28;20048;-62
2022/04/12 07:51:31;;;;;;;10.05;6.30;;;14.80;99.90;;;;;;5104307;28;20059;-61
2022/04/12 07:53:57;;;;;;;11.05;6.88;;;15.20;99.10;;;;;;5098547;28;20489;-62
2022/04/12 07:56:24;;;;;;;9.82;6.38;;;15.50;97.40;;;;;;5101707;28;20104;-63
2022/04/12 07:58:50;;;;;;;8.90;6.70;;;15.90;96.60;;;;;;5101421;28;20493;-65
2022/04/12 08:01:16;;;;;;;10.70;7.50;;;16.30;96.70;;;;;;5083609;28;20093;-63
2022/04/12 08:03:41;;;;;;;11.10;6.80;;;16.70;93.00;;;;;;5074439;28;20052;-62
2022/04/12 08:06:08;;;;;;;11.05;7.50;;;17.10;93.30;;;;;;5097009;28;20035;-61
2022/04/12 08:08:34;;;;;;;12.90;7.20;;;17.20;91.00;;;;;;5085047;28;20060;-65
2022/04/12 08:11:00;;;;;;;11.00;7.47;;;17.10;90.80;;;;;;5093080;28;20437;-63
2022/04/12 08:13:26;;;;;;;9.07;6.63;;;17.10;91.00;;;;;;5105364;28;20506;-63
2022/04/12 08:15:52;;;;;;;9.15;6.63;;;17.50;91.10;;;;;;5071998;28;20048;-64
2022/04/12 08:18:17;;;;;;;9.77;6.95;;;17.50;90.00;;;;;;5093563;28;20047;-63
2022/04/12 08:20:43;;;;;;;9.07;7.00;;;17.40;91.10;;;;;;5099509;28;20051;-63
2022/04/12 08:23:09;;;;;;;9.93;7.25;;;17.70;90.90;;;;;;5092018;28;20040;-63
2022/04/12 08:25:35;;;;;;;8.40;5.63;;;17.80;88.30;;;;;;5098141;28;20382;-65
2022/04/12 08:28:01;;;;;;;11.02;7.45;;;17.90;88.50;;;;;;5079576;28;20043;-63
2022/04/12 08:30:26;;;;;;;9.75;7.22;;;18.10;88.10;;;;;;5097261;28;20047;-64
2022/04/12 08:32:52;;;;;;;12.15;7.28;;;18.00;86.20;;;;;;5093041;28;20397;-63
2022/04/12 08:35:18;;;;;;;8.63;7.00;;;17.80;86.20;;;;;;5099569;28;20044;-63
2022/04/12 08:37:44;;;;;;;10.57;7.15;;;17.80;86.10;;;;;;5089634;28;20378;-63
2022/04/12 08:40:10;;;;;;;9.02;6.22;;;18.00;85.30;;;;;;5073810;28;20152;-63
2022/04/12 08:42:36;;;;;;;8.88;6.93;;;18.30;85.00;;;;;;5101369;28;20063;-63
2022/04/12 08:45:06;;;;;;;9.13;6.55;;;18.60;86.30;;;;;;5095895;28;20050;-65
2022/04/12 08:47:34;;;;;;;10.45;7.13;;;18.60;84.30;;;;;;5095389;28;20308;-65
2022/04/12 08:50:01;;;;;;;11.00;7.47;;;18.70;83.10;;;;;;5100858;28;20036;-66
2022/04/12 08:52:27;;;;;;;9.93;7.40;;;18.10;82.90;;;;;;5076161;28;20040;-64
2022/04/12 08:54:53;;;;;;;10.40;7.57;;;17.40;82.80;;;;;;5094058;28;20088;-64
2022/04/12 08:57:19;;;;;;;11.70;7.15;;;17.10;84.70;;;;;;5107286;28;20063;-62
2022/04/12 08:59:46;;;;;;;10.82;7.38;;;17.00;85.20;;;;;;5090278;28;20048;-63
2022/04/12 09:02:12;;;;;;;9.43;7.57;;;16.90;85.80;;;;;;5104676;28;20337;-63
2022/04/12 09:04:38;;;;;;;10.23;7.63;;;16.80;85.70;;;;;;5101008;28;20076;-65
2022/04/12 09:07:09;;;;;;;10.48;7.22;;;16.90;86.20;;;;;;5106939;28;20358;-64
2022/04/12 09:09:35;;;;;;;9.57;7.15;;;17.00;87.00;;;;;;5102401;28;20087;-63
2022/04/12 09:12:11;;;;;;;11.43;7.63;;;17.30;86.90;;;;;;5101047;28;20079;-63
2022/04/12 09:14:44;;;;;;;10.60;7.80;;;17.40;85.60;;;;;;5103148;28;20369;-66
2022/04/12 09:17:20;;;;;;;11.50;7.57;;;17.40;85.90;;;;;;5094065;28;20040;-68
2022/04/12 09:19:55;;;;;;;11.13;7.03;;;17.40;85.90;;;;;;5098166;28;20127;-65
2022/04/12 09:22:26;;;;;;;10.95;7.22;;;17.50;86.40;;;;;;5098723;28;20070;-64
2022/04/12 09:24:56;;;;;;;8.93;7.32;;;17.40;86.20;;;;;;5102159;28;20043;-64
2022/04/12 09:27:25;;;;;;;10.45;7.47;;;17.30;84.70;;;;;;5069775;28;20512;-63
2022/04/12 09:29:59;;;;;;;12.15;7.68;;;17.20;86.80;;;;;;5093268;28;20047;-63
2022/04/12 09:32:27;;;;;;;10.80;7.45;;;17.10;86.70;;;;;;5109017;28;20051;-67
2022/04/12 09:34:54;;;;;;;9.55;7.72;;;16.90;86.70;;;;;;5083370;28;20397;-65
2022/04/12 09:37:31;;;;;;;11.55;7.82;;;16.70;87.30;;;;;;5103369;28;20043;-65
2022/04/12 09:40:00;;;;;;;10.00;7.50;;;16.50;87.90;;;;;;5069323;28;20450;-71
2022/04/12 09:42:40;;;;;;;12.00;7.95;;;16.40;88.20;;;;;;5099677;28;20533;-65
2022/04/12 09:45:09;;;;;;;11.57;7.70;;;16.30;89.70;;;;;;5081517;28;20059;-65
2022/04/12 09:47:35;;;;;;;9.35;7.78;;;16.30;90.00;;;;;;5077449;28;20048;-66
2022/04/12 09:50:01;;;;;;;13.73;7.97;;;16.30;90.30;;;;;;5086160;28;20400;-65
2022/04/12 09:52:27;;;;;;;11.60;7.57;;;16.50;90.40;;;;;;5094352;28;20048;-64
2022/04/12 09:54:57;;;;;;;10.73;8.60;;;16.50;89.80;;;;;;5105747;28;20573;-67
2022/04/12 09:57:23;;;;;;;10.07;8.30;;;16.40;89.80;;;;;;5099650;28;20052;-64
2022/04/12 09:59:53;;;;;;;12.38;8.52;;;16.30;90.20;;;;;;5105578;28;20046;-66
2022/04/12 10:02:19;;;;;;;10.52;8.20;;;16.30;90.20;;;;;;5073618;28;20086;-64
2022/04/12 10:04:46;;;;;;;10.95;7.85;;;16.30;90.30;;;;;;5099085;28;20050;-63
2022/04/12 10:07:14;;;;;;;12.43;8.25;;;16.40;90.30;;;;;;5072341;28;20059;-65
2022/04/12 10:09:41;;;;;;;10.10;7.13;;;16.40;90.30;;;;;;5073931;28;20056;-65
2022/04/12 10:12:08;;;;;;;10.35;7.30;;;16.40;90.20;;;;;;5100234;28;20184;-64
2022/04/12 10:14:35;;;;;;;11.63;7.80;;;16.30;90.30;;;;;;5097548;28;20139;-65
2022/04/12 10:17:01;;;;;;;10.77;8.02;;;16.30;90.60;;;;;;5098772;28;20032;-64
2022/04/12 10:19:29;;;;;;;14.20;8.38;;;16.40;90.60;;;;;;5083669;28;20142;-64
2022/04/12 10:21:54;;;;;;;10.35;7.47;;;16.30;90.60;;;;;;5111054;28;20040;-65
2022/04/12 10:24:21;;;;;;;11.93;7.80;;;16.30;91.00;;;;;;5103014;28;20043;-66
2022/04/12 10:26:48;;;;;;;11.57;8.00;;;16.40;90.80;;;;;;5095486;28;20126;-64
2022/04/12 10:29:15;;;;;;;11.73;7.85;;;16.50;91.00;;;;;;5095417;28;20404;-65
2022/04/12 10:31:55;;;;;;;10.23;7.57;;;16.60;91.10;;;;;;5084736;28;20047;-64
2022/04/12 10:34:21;;;;;;;10.38;7.78;;;16.60;91.00;;;;;;5106552;28;20052;-65
2022/04/12 10:37:09;;;;;;;11.73;7.80;;;16.60;91.10;;;;;;5076560;28;20067;-64
2022/04/12 10:39:46;;;;;;;11.45;8.60;;;16.80;91.20;;;;;;5095710;28;20135;-64
2022/04/12 10:42:33;;;;;;;11.13;7.68;;;16.90;90.50;;;;;;5106346;28;20051;-64
2022/04/12 10:45:02;;;;;;;11.55;8.60;;;16.90;91.00;;;;;;5091918;28;20073;-64
2022/04/12 10:47:33;;;;;;;13.13;8.45;;;16.90;90.60;;;;;;5078963;28;20104;-66
2022/04/12 10:50:05;;;;;;;11.20;7.57;;;16.90;91.20;;;;;;5104982;28;20544;-65
2022/04/12 10:52:42;;;;;;;10.40;7.47;;;17.00;91.30;;;;;;5106865;28;20377;-65
2022/04/12 10:55:13;;;;;;;10.05;7.22;;;17.10;91.20;;;;;;5100135;28;20091;-66
2022/04/12 10:57:40;;;;;;;11.52;8.23;;;17.20;90.60;;;;;;5092319;28;20052;-64
2022/04/12 11:00:09;;;;;;;10.10;7.32;;;17.20;90.80;;;;;;5106389;28;20075;-64
2022/04/12 11:02:51;;;;;;;13.75;7.53;;;17.30;90.50;;;;;;5082958;28;20113;-66
2022/04/12 11:05:44;;;;;;;10.88;7.47;;;17.30;90.00;;;;;;5096103;28;20046;-63
2022/04/12 11:08:16;;;;;;;9.88;7.80;;;17.30;90.40;;;;;;5099144;28;20556;-64
2022/04/12 11:11:04;;;;;;;11.20;8.23;;;17.30;90.60;;;;;;5097204;28;20529;-63
2022/04/12 11:13:32;;;;;;;12.98;8.18;;;17.40;90.80;;;;;;5098193;28;20056;-64
2022/04/12 11:16:06;;;;;;;10.93;8.20;;;17.50;90.10;;;;;;5102050;28;20038;-63
2022/04/12 11:19:04;;;;;;;11.75;8.45;;;17.50;90.20;;;;;;5096982;28;21504;-63
2022/04/12 11:21:48;;;;;;;11.32;7.93;;;17.50;90.20;;;;;;5047296;28;20467;-63
2022/04/12 11:24:20;;;;;;;13.65;8.15;;;17.50;90.70;;;;;;5100358;28;20040;-64
2022/04/12 11:26:48;;;;;;;12.52;8.05;;;17.50;90.70;;;;;;5081436;28;20031;-63
2022/04/12 11:29:18;;;;;;;10.05;7.65;;;17.60;90.70;;;;;;5104786;28;20043;-65
2022/04/12 11:31:50;;;;;;;13.40;8.70;;;17.70;90.20;;;;;;5100201;28;20561;-65
2022/04/12 11:34:17;;;;;;;11.95;8.07;;;17.70;90.30;;;;;;5100574;28;20044;-64
2022/04/12 11:36:50;;;;;;;10.40;7.32;;;17.60;90.70;;;;;;5097117;28;20123;-64
2022/04/12 11:39:43;;;;;;;11.02;8.02;;;17.60;90.90;;;;;;5104060;28;20035;-64
2022/04/12 11:42:11;;;;;;;13.20;8.60;;;17.70;90.90;;;;;;5087918;28;20054;-65
2022/04/12 11:44:37;;;;;;;12.40;7.30;;;17.70;91.30;;;;;;5095812;28;20051;-65
2022/04/12 11:47:08;;;;;;;11.35;8.23;;;17.70;91.20;;;;;;5085674;28;20374;-65
2022/04/12 11:49:39;;;;;;;10.75;7.95;;;17.80;91.50;;;;;;5099229;28;20052;-64
2022/04/12 11:52:07;;;;;;;10.52;8.20;;;17.90;91.40;;;;;;5093738;28;20533;-65
2022/04/12 11:54:36;;;;;;;11.48;6.72;;;18.00;90.50;;;;;;5088979;28;20185;-62
2022/04/12 11:57:13;;;;;;;12.40;7.38;;;18.10;90.50;;;;;;5076559;28;20043;-64
2022/04/12 11:59:52;;;;;;;10.98;6.43;;;18.10;90.20;;;;;;5100281;28;20051;-64
2022/04/12 12:02:23;;;;;;;11.10;7.28;;;18.20;90.20;;;;;;5093011;28;20044;-63
2022/04/12 12:04:53;;;;;;;11.88;7.50;;;18.10;89.30;;;;;;5088063;28;20158;-64
2022/04/12 12:07:19;;;;;;;12.48;8.20;;;18.10;90.10;;;;;;5098835;28;20044;-65
2022/04/12 12:10:09;;;;;;;13.30;8.95;;;18.00;90.30;;;;;;5096046;28;20050;-66
2022/04/12 12:12:45;;;;;;;9.07;7.22;;;17.90;90.60;;;;;;5091699;28;20351;-64
2022/04/12 12:15:37;;;;;;;13.02;7.60;;;17.80;90.50;;;;;;5095331;28;20051;-66
2022/04/12 12:18:06;;;;;;;11.77;7.40;;;17.90;90.60;;;;;;5095250;28;20206;-64
2022/04/12 12:20:37;;;;;;;14.77;8.32;;;17.90;90.80;;;;;;5083477;28;20142;-63
2022/04/12 12:23:05;;;;;;;10.43;7.03;;;18.00;91.00;;;;;;5094103;28;20048;-63
2022/04/12 12:25:55;;;;;;;11.32;7.68;;;18.10;90.90;;;;;;5094811;28;20058;-63
2022/04/12 12:28:25;;;;;;;10.95;6.47;;;18.10;90.90;;;;;;5091492;28;20126;-62
2022/04/12 12:30:59;;;;;;;13.65;8.57;;;18.20;90.80;;;;;;5091907;28;20047;-63
2022/04/12 12:33:38;;;;;;;11.60;8.13;;;18.20;91.10;;;;;;5101513;28;20136;-61
2022/04/12 12:36:22;;;;;;;10.57;7.72;;;18.20;91.40;;;;;;5104919;28;20044;-62
2022/04/12 12:38:49;;;;;;;12.65;8.32;;;18.30;91.30;;;;;;5103297;28;20040;-63
2022/04/12 12:41:32;;;;;;;10.85;7.65;;;18.30;91.20;;;;;;5110429;28;20532;-63
2022/04/12 12:44:00;;;;;;;13.50;7.53;;;18.30;91.20;;;;;;5104019;28;20051;-64
2022/04/12 12:46:33;;;;;;;10.77;8.27;;;18.40;91.20;;;;;;5110611;28;20078;-64
2022/04/12 12:49:09;;;;;;;11.57;7.97;;;18.40;91.50;;;;;;5106544;28;20043;-64
2022/04/12 12:51:39;;;;;;;12.25;8.70;;;18.50;91.30;;;;;;5078180;28;20488;-62
2022/04/12 12:54:06;;;;;;;13.70;8.30;;;18.40;91.40;;;;;;5094517;28;20141;-66